Time;durP1;ratioP1;P1;durP2;ratioP2;P2;SDS_P1;SDS_P2;PMS_P1;PMS_P2;Temp;Humidity;BMP_temperature;BMP_pressure;BME280_temperature;BME280_humidity;BME280_pressure;Samples;Min_cycle;Max_cycle;Signal;HPM_P1;HPM_P2
2023/04/30 00:01:39;;;;;;;5.57;3.90;;;;;;;;;;5005231;28;20213;-68
2023/04/30 00:04:43;;;;;;;5.33;4.13;;;;;;;;;;5016725;28;20521;-68
2023/04/30 00:07:47;;;;;;;5.80;4.67;;;;;;;;;;5016708;28;20185;-69
2023/04/30 00:10:52;;;;;;;6.70;4.87;;;;;;;;;;4993443;28;20202;-69
2023/04/30 00:13:56;;;;;;;6.23;4.63;;;;;;;;;;5004458;28;20525;-69
2023/04/30 00:17:00;;;;;;;7.43;4.87;;;;;;;;;;5004815;28;20518;-69
2023/04/30 00:20:06;;;;;;;6.93;5.30;;;;;;;;;;5016735;28;20170;-69
2023/04/30 00:23:10;;;;;;;6.73;5.33;;;;;;;;;;5004598;28;20207;-69
2023/04/30 00:26:14;;;;;;;7.17;5.23;;;;;;;;;;5016329;28;20189;-68
2023/04/30 00:29:21;;;;;;;7.40;5.47;;;;;;;;;;5016688;28;20525;-69
2023/04/30 00:32:26;;;;;;;7.17;5.37;;;;;;;;;;5004361;28;20217;-69
2023/04/30 00:35:29;;;;;;;10.23;5.50;;;;;;;;;;5004206;28;20185;-68
2023/04/30 00:38:34;;;;;;;7.20;5.53;;;;;;;;;;5016459;28;20181;-69
2023/04/30 00:41:38;;;;;;;10.10;6.20;;;;;;;;;;5015700;28;20213;-69
2023/04/30 00:44:42;;;;;;;7.67;5.57;;;;;;;;;;5003878;28;20197;-69
2023/04/30 00:47:47;;;;;;;6.57;5.47;;;;;;;;;;5003936;28;20181;-69
2023/04/30 00:50:51;;;;;;;7.33;5.90;;;;;;;;;;5003800;28;20201;-69
2023/04/30 00:53:56;;;;;;;13.60;5.60;;;;;;;;;;5004086;28;20645;-69
2023/04/30 00:57:01;;;;;;;7.27;5.37;;;;;;;;;;4992746;28;20178;-68
2023/04/30 01:00:10;;;;;;;6.83;5.63;;;;;;;;;;5015688;28;20178;-69
2023/04/30 01:03:14;;;;;;;7.13;5.20;;;;;;;;;;5003861;28;20197;-69
2023/04/30 01:06:18;;;;;;;7.80;5.50;;;;;;;;;;5003541;28;20185;-68
2023/04/30 01:09:23;;;;;;;9.37;5.87;;;;;;;;;;5015510;28;20534;-69
2023/04/30 01:12:46;;;;;;;6.37;5.50;;;;;;;;;;4992316;28;20217;-68
2023/04/30 01:15:56;;;;;;;6.53;5.50;;;;;;;;;;5003692;28;20525;-69
2023/04/30 01:19:06;;;;;;;7.07;5.87;;;;;;;;;;5015636;28;20197;-69
2023/04/30 01:22:25;;;;;;;9.70;5.63;;;;;;;;;;5003225;28;20553;-69
2023/04/30 01:25:44;;;;;;;6.67;5.57;;;;;;;;;;4981251;28;20182;-69
2023/04/30 01:28:52;;;;;;;6.10;5.30;;;;;;;;;;5003754;28;20189;-69
2023/04/30 01:31:56;;;;;;;8.73;5.97;;;;;;;;;;5014225;28;20209;-69
2023/04/30 01:35:00;;;;;;;5.70;4.97;;;;;;;;;;4991137;28;20185;-69
2023/04/30 01:38:35;;;;;;;7.63;5.17;;;;;;;;;;5002317;28;20181;-69
2023/04/30 01:42:01;;;;;;;5.80;5.20;;;;;;;;;;5002070;28;20225;-69
2023/04/30 01:45:15;;;;;;;7.27;5.17;;;;;;;;;;4991033;28;20522;-69
2023/04/30 01:48:44;;;;;;;6.90;5.30;;;;;;;;;;4990691;28;20546;-69
2023/04/30 01:51:55;;;;;;;7.27;5.10;;;;;;;;;;5001033;28;20221;-68
2023/04/30 01:55:07;;;;;;;6.30;5.30;;;;;;;;;;5002068;28;20190;-69
2023/04/30 01:58:13;;;;;;;7.63;5.87;;;;;;;;;;5013769;28;20177;-70
2023/04/30 02:01:29;;;;;;;7.50;6.10;;;;;;;;;;5001543;28;20217;-69
2023/04/30 02:04:34;;;;;;;6.00;5.40;;;;;;;;;;5014217;28;20533;-69
2023/04/30 02:07:46;;;;;;;6.47;5.63;;;;;;;;;;5002123;28;20190;-69
2023/04/30 02:10:51;;;;;;;7.87;5.50;;;;;;;;;;5001616;28;20201;-69
2023/04/30 02:13:55;;;;;;;7.40;5.67;;;;;;;;;;5001875;28;20182;-69
2023/04/30 02:16:59;;;;;;;8.17;5.90;;;;;;;;;;5014072;28;20621;-69
2023/04/30 02:20:04;;;;;;;7.93;5.97;;;;;;;;;;5001678;28;20189;-69
2023/04/30 02:23:08;;;;;;;6.63;5.87;;;;;;;;;;5013367;28;20181;-69
2023/04/30 02:26:12;;;;;;;7.27;5.67;;;;;;;;;;5001191;28;20189;-69
2023/04/30 02:29:16;;;;;;;7.43;6.10;;;;;;;;;;5001306;28;20185;-69
2023/04/30 02:32:06;;;;;;;8.27;6.13;;;;;;;;;;5111278;27;21517;-70
2023/04/30 02:35:10;;;;;;;9.10;6.30;;;;;;;;;;5111143;28;20189;-70
2023/04/30 02:38:15;;;;;;;7.27;5.77;;;;;;;;;;5098740;28;20174;-70
2023/04/30 02:41:20;;;;;;;8.27;6.30;;;;;;;;;;5110764;28;20584;-69
2023/04/30 02:44:25;;;;;;;8.43;6.10;;;;;;;;;;5111625;28;20166;-70
2023/04/30 02:47:29;;;;;;;8.77;6.03;;;;;;;;;;5110233;28;20185;-70
2023/04/30 02:50:33;;;;;;;7.67;6.13;;;;;;;;;;5110597;28;20206;-70
2023/04/30 02:53:37;;;;;;;8.43;6.30;;;;;;;;;;5098449;28;20541;-70
2023/04/30 02:56:42;;;;;;;8.93;6.20;;;;;;;;;;5098235;28;20198;-70
2023/04/30 02:59:46;;;;;;;7.63;5.80;;;;;;;;;;5109953;28;20198;-70
2023/04/30 03:02:51;;;;;;;9.00;6.10;;;;;;;;;;5098441;28;20214;-70
2023/04/30 03:05:58;;;;;;;7.17;6.43;;;;;;;;;;5109823;28;20532;-70
2023/04/30 03:09:02;;;;;;;6.83;6.10;;;;;;;;;;5110623;28;20529;-70
2023/04/30 03:12:06;;;;;;;9.00;6.50;;;;;;;;;;5109325;28;20222;-70
2023/04/30 03:15:10;;;;;;;8.37;6.63;;;;;;;;;;5098213;28;20202;-70
2023/04/30 03:18:14;;;;;;;8.40;6.10;;;;;;;;;;5097757;28;20170;-70
2023/04/30 03:21:18;;;;;;;6.27;5.63;;;;;;;;;;5097790;28;20216;-70
2023/04/30 03:24:23;;;;;;;7.63;6.33;;;;;;;;;;5109539;28;20178;-70
2023/04/30 03:27:28;;;;;;;10.10;7.23;;;;;;;;;;5109429;28;20556;-69
2023/04/30 03:30:32;;;;;;;7.97;6.50;;;;;;;;;;5109273;28;20222;-70
2023/04/30 03:33:37;;;;;;;7.80;6.23;;;;;;;;;;5109393;28;20178;-70
2023/04/30 03:36:40;;;;;;;7.73;6.40;;;;;;;;;;5109059;28;20174;-70
2023/04/30 03:39:45;;;;;;;9.37;6.80;;;;;;;;;;5109510;28;20182;-70
2023/04/30 03:42:49;;;;;;;8.40;6.57;;;;;;;;;;5098982;28;20218;-70
2023/04/30 03:45:53;;;;;;;8.30;6.57;;;;;;;;;;5095811;28;20182;-70
2023/04/30 03:48:57;;;;;;;8.80;6.10;;;;;;;;;;5097788;22;20231;-73
2023/04/30 03:52:01;;;;;;;7.40;6.17;;;;;;;;;;5087399;28;20222;-74
2023/04/30 03:55:06;;;;;;;8.23;7.00;;;;;;;;;;5083834;28;20556;-75
2023/04/30 03:58:10;;;;;;;8.33;6.73;;;;;;;;;;5083500;28;20195;-74
2023/04/30 04:01:15;;;;;;;9.53;6.87;;;;;;;;;;5083493;28;20684;-73
2023/04/30 04:04:18;;;;;;;7.27;6.07;;;;;;;;;;5072590;28;20506;-74
2023/04/30 04:07:22;;;;;;;7.87;5.87;;;;;;;;;;5095957;28;20641;-74
2023/04/30 04:10:27;;;;;;;7.43;6.27;;;;;;;;;;5083366;28;20215;-75
2023/04/30 04:13:34;;;;;;;8.50;6.47;;;;;;;;;;5071817;28;20553;-73
2023/04/30 04:16:38;;;;;;;7.67;5.83;;;;;;;;;;5083477;28;20175;-73
2023/04/30 04:19:42;;;;;;;7.10;6.30;;;;;;;;;;5071997;28;20183;-73
2023/04/30 04:22:46;;;;;;;7.03;5.77;;;;;;;;;;5083169;28;20206;-73
2023/04/30 04:25:51;;;;;;;8.43;6.20;;;;;;;;;;5083280;28;20179;-73
2023/04/30 04:28:55;;;;;;;7.80;6.67;;;;;;;;;;5071764;28;20175;-73
2023/04/30 04:32:01;;;;;;;9.63;6.73;;;;;;;;;;5082602;28;20230;-73
2023/04/30 04:35:05;;;;;;;9.83;6.57;;;;;;;;;;5082781;28;20199;-74
2023/04/30 04:38:10;;;;;;;8.03;6.13;;;;;;;;;;5071496;28;20179;-75
2023/04/30 04:41:14;;;;;;;7.63;6.00;;;;;;;;;;5082691;28;20206;-74
2023/04/30 04:44:18;;;;;;;6.73;5.77;;;;;;;;;;5095570;28;20179;-74
2023/04/30 04:47:23;;;;;;;9.30;7.03;;;;;;;;;;5070842;28;20195;-74
2023/04/30 04:50:27;;;;;;;12.40;8.83;;;;;;;;;;5082315;28;20199;-74
2023/04/30 04:53:31;;;;;;;9.07;7.00;;;;;;;;;;5081761;28;20179;-74
2023/04/30 04:56:35;;;;;;;7.70;6.70;;;;;;;;;;5094966;28;20183;-74
2023/04/30 04:59:39;;;;;;;7.03;6.13;;;;;;;;;;5082782;28;20183;-74
2023/04/30 05:02:43;;;;;;;7.20;6.50;;;;;;;;;;5059645;28;20545;-74
2023/04/30 05:05:47;;;;;;;7.97;6.30;;;;;;;;;;5082105;28;20175;-74
2023/04/30 05:08:51;;;;;;;8.27;6.27;;;;;;;;;;5070694;28;20202;-74
2023/04/30 05:11:55;;;;;;;14.27;9.33;;;;;;;;;;5081973;28;20696;-74
2023/04/30 05:15:00;;;;;;;6.90;6.07;;;;;;;;;;5094328;28;20179;-74
2023/04/30 05:18:04;;;;;;;9.77;6.37;;;;;;;;;;5094889;28;20628;-74
2023/04/30 05:21:08;;;;;;;7.50;6.23;;;;;;;;;;5094102;28;20214;-74
2023/04/30 05:24:12;;;;;;;6.93;5.90;;;;;;;;;;5081966;28;20179;-74
2023/04/30 05:27:16;;;;;;;8.80;6.43;;;;;;;;;;5094308;28;20510;-74
2023/04/30 05:30:20;;;;;;;8.17;6.20;;;;;;;;;;5094363;28;20648;-74
2023/04/30 05:33:24;;;;;;;6.83;6.13;;;;;;;;;;5094386;28;20178;-74
2023/04/30 05:36:29;;;;;;;9.67;6.50;;;;;;;;;;5094300;28;20174;-74
2023/04/30 05:39:33;;;;;;;7.63;6.03;;;;;;;;;;5081683;28;20179;-75
2023/04/30 05:42:39;;;;;;;7.40;6.13;;;;;;;;;;5093811;28;20215;-74
2023/04/30 05:45:44;;;;;;;6.60;5.90;;;;;;;;;;5081719;28;20179;-74
2023/04/30 05:48:47;;;;;;;7.10;6.40;;;;;;;;;;5081387;28;20202;-74
2023/04/30 05:51:51;;;;;;;6.80;6.10;;;;;;;;;;5081186;28;20214;-74
2023/04/30 05:54:55;;;;;;;7.47;5.87;;;;;;;;;;5070070;28;20182;-75
2023/04/30 05:58:00;;;;;;;7.33;6.00;;;;;;;;;;5081380;28;20202;-75
2023/04/30 06:01:04;;;;;;;9.07;6.27;;;;;;;;;;5093441;28;20207;-75
2023/04/30 06:04:08;;;;;;;6.80;5.60;;;;;;;;;;5093692;28;20179;-74
2023/04/30 06:07:13;;;;;;;7.20;5.63;;;;;;;;;;5093733;28;20641;-74
2023/04/30 06:10:17;;;;;;;8.80;6.70;;;;;;;;;;5093388;28;20187;-74
2023/04/30 06:13:21;;;;;;;10.10;6.43;;;;;;;;;;5080971;28;20175;-74
2023/04/30 06:16:26;;;;;;;8.37;6.00;;;;;;;;;;5093319;28;20182;-74
2023/04/30 06:19:30;;;;;;;7.07;6.33;;;;;;;;;;5093669;28;20174;-75
2023/04/30 06:22:34;;;;;;;6.73;5.93;;;;;;;;;;5093557;28;20214;-74
2023/04/30 06:25:38;;;;;;;20.83;7.50;;;;;;;;;;5080807;28;20194;-73
2023/04/30 06:28:42;;;;;;;6.63;5.63;;;;;;;;;;5093211;28;20174;-73
2023/04/30 06:31:47;;;;;;;9.40;6.00;;;;;;;;;;5080611;28;20566;-73
2023/04/30 06:34:51;;;;;;;10.13;6.13;;;;;;;;;;5081265;28;20198;-73
2023/04/30 06:37:55;;;;;;;7.70;6.50;;;;;;;;;;5093361;28;20198;-74
2023/04/30 06:40:59;;;;;;;8.07;6.30;;;;;;;;;;5092999;28;20218;-74
2023/04/30 06:44:03;;;;;;;7.90;6.60;;;;;;;;;;5093348;28;20174;-74
2023/04/30 06:47:07;;;;;;;8.50;6.90;;;;;;;;;;5080666;28;20522;-74
2023/04/30 06:50:11;;;;;;;10.47;6.83;;;;;;;;;;5069459;28;20175;-74
2023/04/30 06:53:16;;;;;;;8.30;6.63;;;;;;;;;;5093039;28;20202;-74
2023/04/30 06:56:20;;;;;;;8.17;6.53;;;;;;;;;;5092874;28;20178;-74
2023/04/30 06:59:24;;;;;;;8.00;6.60;;;;;;;;;;5080667;28;20179;-74
2023/04/30 07:02:28;;;;;;;8.73;7.77;;;;;;;;;;5069040;28;20689;-74
2023/04/30 07:05:33;;;;;;;7.37;6.53;;;;;;;;;;5080615;28;20179;-74
2023/04/30 07:08:39;;;;;;;8.10;6.80;;;;;;;;;;5080388;28;20653;-73
2023/04/30 07:11:44;;;;;;;8.17;6.63;;;;;;;;;;5092775;28;20219;-74
2023/04/30 07:14:48;;;;;;;8.60;6.10;;;;;;;;;;5092958;28;20178;-73
2023/04/30 07:17:52;;;;;;;8.37;6.40;;;;;;;;;;5094913;28;20174;-74
2023/04/30 07:20:56;;;;;;;6.40;5.80;;;;;;;;;;5083795;28;20171;-74
2023/04/30 07:24:00;;;;;;;9.83;6.00;;;;;;;;;;5084419;28;20498;-74
2023/04/30 07:27:06;;;;;;;7.10;5.80;;;;;;;;;;5072434;28;20187;-74
2023/04/30 07:30:10;;;;;;;7.00;5.93;;;;;;;;;;5096833;28;20515;-74
2023/04/30 07:33:15;;;;;;;8.57;6.03;;;;;;;;;;5084564;28;20215;-73
2023/04/30 07:36:19;;;;;;;6.73;6.03;;;;;;;;;;5096390;28;20179;-74
2023/04/30 07:39:23;;;;;;;9.17;6.33;;;;;;;;;;5096163;28;20179;-74
2023/04/30 07:42:27;;;;;;;7.17;6.07;;;;;;;;;;5095938;28;20210;-74
2023/04/30 07:45:33;;;;;;;7.57;6.40;;;;;;;;;;5096017;28;20198;-74
2023/04/30 07:48:38;;;;;;;6.67;5.33;;;;;;;;;;5095967;28;20202;-74
2023/04/30 07:51:42;;;;;;;6.57;5.23;;;;;;;;;;5083621;28;20219;-74
2023/04/30 07:54:46;;;;;;;6.00;5.40;;;;;;;;;;5083678;28;20179;-74
2023/04/30 07:57:50;;;;;;;6.53;5.33;;;;;;;;;;5083294;28;20171;-73
2023/04/30 08:00:54;;;;;;;6.80;5.47;;;;;;;;;;5095854;28;20187;-74
2023/04/30 08:03:59;;;;;;;7.20;5.67;;;;;;;;;;5095598;28;20171;-74
2023/04/30 08:07:03;;;;;;;5.90;5.30;;;;;;;;;;5095969;28;20183;-74
2023/04/30 08:10:07;;;;;;;6.43;4.87;;;;;;;;;;5083305;28;20625;-73
2023/04/30 08:13:11;;;;;;;5.90;5.27;;;;;;;;;;5095764;28;20210;-73
2023/04/30 08:16:15;;;;;;;5.57;4.47;;;;;;;;;;5083116;28;20175;-73
2023/04/30 08:19:20;;;;;;;6.50;4.70;;;;;;;;;;5083415;28;20179;-74
2023/04/30 08:22:24;;;;;;;5.00;4.30;;;;;;;;;;5083176;28;20673;-74
2023/04/30 08:25:28;;;;;;;4.77;4.03;;;;;;;;;;5082925;28;20183;-74
2023/04/30 08:28:32;;;;;;;5.37;3.97;;;;;;;;;;5095214;28;20622;-75
2023/04/30 08:31:36;;;;;;;4.47;3.80;;;;;;;;;;5082700;28;20210;-75
2023/04/30 08:34:42;;;;;;;5.57;3.90;;;;;;;;;;5082459;28;20179;-75
2023/04/30 08:37:46;;;;;;;7.37;3.87;;;;;;;;;;5082477;28;20183;-74
2023/04/30 08:41:21;;;;;;;5.60;3.70;;;;;;;;;;5095194;28;20174;-75
2023/04/30 08:44:26;;;;;;;5.40;3.90;;;;;;;;;;5082600;28;20210;-75
2023/04/30 08:47:30;;;;;;;4.73;3.90;;;;;;;;;;5082314;28;20542;-74
2023/04/30 08:50:34;;;;;;;3.83;3.37;;;;;;;;;;5082409;28;20626;-75
2023/04/30 08:53:40;;;;;;;3.63;2.90;;;;;;;;;;5095364;28;20202;-74
2023/04/30 08:56:44;;;;;;;4.03;2.90;;;;;;;;;;5094787;28;20187;-75
2023/04/30 08:59:49;;;;;;;4.57;2.83;;;;;;;;;;5094831;28;20507;-73
2023/04/30 09:02:53;;;;;;;3.20;2.90;;;;;;;;;;5094686;28;20546;-73
2023/04/30 09:05:57;;;;;;;3.20;2.90;;;;;;;;;;5082410;28;20183;-73
2023/04/30 09:09:10;;;;;;;3.50;3.07;;;;;;;;;;5082351;28;20515;-73
2023/04/30 09:12:18;;;;;;;4.47;3.07;;;;;;;;;;5094081;28;20218;-73
2023/04/30 09:15:22;;;;;;;2.70;2.40;;;;;;;;;;5082582;28;20179;-73
2023/04/30 09:18:28;;;;;;;3.07;2.80;;;;;;;;;;5095201;28;20179;-75
2023/04/30 09:21:36;;;;;;;3.83;2.70;;;;;;;;;;5094189;28;20215;-73
2023/04/30 09:24:48;;;;;;;4.93;3.03;;;;;;;;;;5094024;28;20640;-74
2023/04/30 09:28:24;;;;;;;11.33;6.33;;;;;;;;;;5094080;28;20534;-73
2023/04/30 09:31:28;;;;;;;4.70;3.40;;;;;;;;;;5081764;28;20206;-73
2023/04/30 09:34:34;;;;;;;3.73;3.37;;;;;;;;;;5081999;28;20175;-73
2023/04/30 09:37:38;;;;;;;3.60;3.27;;;;;;;;;;5094069;28;20511;-73
2023/04/30 09:40:42;;;;;;;3.37;2.93;;;;;;;;;;5081020;28;20175;-73
2023/04/30 09:43:46;;;;;;;4.03;3.40;;;;;;;;;;5093919;28;20199;-73
2023/04/30 09:46:51;;;;;;;5.03;2.70;;;;;;;;;;5081149;28;20194;-73
2023/04/30 09:49:58;;;;;;;3.50;3.10;;;;;;;;;;5070081;28;20175;-74
2023/04/30 09:53:07;;;;;;;3.47;3.17;;;;;;;;;;5124944;22;20237;-70
2023/04/30 09:56:13;;;;;;;6.30;2.93;;;;;;;;;;5114062;28;20178;-70
2023/04/30 09:59:21;;;;;;;3.73;2.60;;;;;;;;;;5101447;28;20174;-70
2023/04/30 10:02:26;;;;;;;5.07;2.97;;;;;;;;;;5114198;28;20210;-70
2023/04/30 10:05:31;;;;;;;4.03;2.67;;;;;;;;;;5114235;28;20170;-70
2023/04/30 10:08:42;;;;;;;4.93;3.90;;;;;;;;;;5101840;28;20174;-70
2023/04/30 10:11:46;;;;;;;3.30;2.70;;;;;;;;;;5113915;28;20696;-70
2023/04/30 10:15:01;;;;;;;4.30;2.73;;;;;;;;;;5114288;28;20174;-70
2023/04/30 10:18:16;;;;;;;2.93;2.50;;;;;;;;;;5114559;28;20179;-70
2023/04/30 10:21:23;;;;;;;2.63;2.30;;;;;;;;;;5101533;28;20214;-70
2023/04/30 10:24:30;;;;;;;3.60;2.87;;;;;;;;;;5114203;28;20170;-70
2023/04/30 10:27:35;;;;;;;5.57;2.37;;;;;;;;;;5113716;28;20174;-70
2023/04/30 10:30:42;;;;;;;3.73;2.30;;;;;;;;;;5114011;28;20174;-70
2023/04/30 10:34:03;;;;;;;4.77;2.47;;;;;;;;;;5114021;28;20206;-70
2023/04/30 10:37:38;;;;;;;3.20;2.67;;;;;;;;;;5114113;28;20621;-70
2023/04/30 10:40:46;;;;;;;3.97;2.37;;;;;;;;;;5113935;28;20167;-69
2023/04/30 10:43:55;;;;;;;3.80;2.70;;;;;;;;;;5113996;28;20178;-70
2023/04/30 10:47:01;;;;;;;2.80;2.17;;;;;;;;;;5113719;28;20175;-70
2023/04/30 10:50:09;;;;;;;4.60;3.30;;;;;;;;;;5100871;28;20190;-70
2023/04/30 10:53:17;;;;;;;4.23;3.43;;;;;;;;;;5103540;28;20687;-70
2023/04/30 10:56:31;;;;;;;5.33;3.57;;;;;;;;;;5117708;28;20179;-70
2023/04/30 10:59:36;;;;;;;3.37;2.50;;;;;;;;;;5117686;28;20179;-70
2023/04/30 11:02:46;;;;;;;7.77;4.57;;;;;;;;;;5117386;28;20202;-70
2023/04/30 11:05:50;;;;;;;3.57;2.80;;;;;;;;;;5117367;28;20521;-70
2023/04/30 11:09:02;;;;;;;4.20;2.53;;;;;;;;;;5117518;28;20174;-70
2023/04/30 11:12:15;;;;;;;3.50;2.73;;;;;;;;;;5117445;28;20557;-70
2023/04/30 11:15:42;;;;;;;3.20;2.57;;;;;;;;;;5117665;28;20613;-70
2023/04/30 11:18:47;;;;;;;5.40;2.50;;;;;;;;;;5117634;28;20187;-70
2023/04/30 11:22:21;;;;;;;2.80;2.50;;;;;;;;;;5117368;28;20213;-70
2023/04/30 11:25:38;;;;;;;3.13;2.60;;;;;;;;;;5117232;28;20182;-70
2023/04/30 11:28:51;;;;;;;3.37;2.60;;;;;;;;;;5104922;28;20186;-70
2023/04/30 11:31:55;;;;;;;3.57;2.93;;;;;;;;;;5117113;28;20557;-70
2023/04/30 11:35:01;;;;;;;3.53;2.57;;;;;;;;;;5116992;28;20162;-70
2023/04/30 11:38:08;;;;;;;3.77;2.90;;;;;;;;;;5104357;28;20540;-70
2023/04/30 11:41:12;;;;;;;3.10;2.80;;;;;;;;;;5117042;28;20218;-70
2023/04/30 11:44:26;;;;;;;5.90;2.80;;;;;;;;;;5117120;28;20170;-70
2023/04/30 11:47:53;;;;;;;3.83;3.10;;;;;;;;;;5116734;28;20659;-70
2023/04/30 11:50:57;;;;;;;4.37;3.23;;;;;;;;;;5116651;28;21564;-70
2023/04/30 11:54:01;;;;;;;3.77;3.43;;;;;;;;;;5116355;28;20659;-70
2023/04/30 11:57:05;;;;;;;5.33;3.70;;;;;;;;;;5116338;28;20636;-69
2023/04/30 12:00:15;;;;;;;4.37;3.40;;;;;;;;;;5116341;28;20178;-69
2023/04/30 12:03:20;;;;;;;4.20;3.47;;;;;;;;;;5103271;28;20510;-70
2023/04/30 12:06:26;;;;;;;3.30;3.00;;;;;;;;;;5116342;28;20182;-70
2023/04/30 12:09:30;;;;;;;4.83;3.47;;;;;;;;;;5092748;28;20509;-70
2023/04/30 12:12:36;;;;;;;6.27;3.50;;;;;;;;;;5116086;28;20687;-70
2023/04/30 12:15:40;;;;;;;5.00;3.50;;;;;;;;;;5116574;28;20178;-70
2023/04/30 12:18:45;;;;;;;3.87;3.10;;;;;;;;;;5116209;28;20505;-70
2023/04/30 12:21:49;;;;;;;4.07;3.10;;;;;;;;;;5103420;28;20680;-70
2023/04/30 12:24:54;;;;;;;3.10;2.80;;;;;;;;;;5115819;28;20178;-70
2023/04/30 12:27:58;;;;;;;3.50;2.57;;;;;;;;;;5103222;28;20178;-70
2023/04/30 12:31:05;;;;;;;3.33;2.90;;;;;;;;;;5103204;28;20213;-71
2023/04/30 12:34:11;;;;;;;3.20;2.60;;;;;;;;;;5103066;28;20210;-71
2023/04/30 12:37:16;;;;;;;3.43;2.60;;;;;;;;;;5115575;28;20198;-71
2023/04/30 12:40:26;;;;;;;4.53;2.27;;;;;;;;;;5103383;28;20526;-71
2023/04/30 12:43:30;;;;;;;3.53;2.43;;;;;;;;;;5091306;28;20186;-70
2023/04/30 12:46:34;;;;;;;3.33;2.37;;;;;;;;;;5102385;28;20178;-70
2023/04/30 12:49:38;;;;;;;3.00;2.03;;;;;;;;;;5102335;28;20186;-71
2023/04/30 12:52:43;;;;;;;3.40;2.30;;;;;;;;;;5115426;28;20221;-71
2023/04/30 12:56:11;;;;;;;3.17;2.03;;;;;;;;;;5102269;28;20632;-71
2023/04/30 12:59:16;;;;;;;3.60;2.27;;;;;;;;;;5114775;28;20186;-71
2023/04/30 13:02:23;;;;;;;2.57;2.30;;;;;;;;;;5115180;28;20206;-72
2023/04/30 13:05:27;;;;;;;3.07;2.77;;;;;;;;;;5102863;28;20174;-71
2023/04/30 13:08:32;;;;;;;3.17;2.33;;;;;;;;;;5115579;28;20177;-71
2023/04/30 13:11:36;;;;;;;2.30;2.10;;;;;;;;;;5114443;28;20210;-71
2023/04/30 13:14:41;;;;;;;3.33;2.00;;;;;;;;;;5100574;28;20198;-72
2023/04/30 13:17:45;;;;;;;2.43;1.70;;;;;;;;;;5114927;28;20182;-70
2023/04/30 13:20:50;;;;;;;2.93;1.97;;;;;;;;;;5114729;28;20174;-70
2023/04/30 13:23:54;;;;;;;4.10;2.57;;;;;;;;;;5090621;28;20174;-70
2023/04/30 13:26:58;;;;;;;2.93;2.10;;;;;;;;;;5102429;28;20169;-70
2023/04/30 13:30:03;;;;;;;2.50;1.80;;;;;;;;;;5090557;28;20178;-70
2023/04/30 13:33:08;;;;;;;1.50;1.40;;;;;;;;;;5101704;28;20534;-71
2023/04/30 13:36:12;;;;;;;2.63;2.13;;;;;;;;;;5114336;28;20202;-71
2023/04/30 13:39:16;;;;;;;2.10;1.90;;;;;;;;;;5102070;28;20178;-71
2023/04/30 13:42:20;;;;;;;2.90;2.10;;;;;;;;;;5114285;28;20214;-70
2023/04/30 13:45:24;;;;;;;3.33;1.70;;;;;;;;;;5101812;28;20193;-71
2023/04/30 13:48:28;;;;;;;2.20;1.80;;;;;;;;;;5101865;28;20178;-71
2023/04/30 13:51:32;;;;;;;4.90;1.80;;;;;;;;;;5101622;28;20221;-71
2023/04/30 13:54:37;;;;;;;4.17;2.17;;;;;;;;;;5101877;28;20537;-70
2023/04/30 13:57:41;;;;;;;4.40;1.97;;;;;;;;;;5113819;28;20178;-71
2023/04/30 14:00:45;;;;;;;2.47;2.10;;;;;;;;;;5101610;28;20182;-71
2023/04/30 14:03:49;;;;;;;2.13;1.80;;;;;;;;;;5078955;28;20174;-70
2023/04/30 14:06:55;;;;;;;2.87;2.03;;;;;;;;;;5102054;28;20616;-71
2023/04/30 14:09:59;;;;;;;2.60;1.73;;;;;;;;;;5114078;28;20178;-70
2023/04/30 14:13:03;;;;;;;2.47;1.80;;;;;;;;;;5093307;28;20183;-70
2023/04/30 14:16:08;;;;;;;4.13;1.70;;;;;;;;;;5094103;28;20171;-71
2023/04/30 14:19:12;;;;;;;3.73;2.20;;;;;;;;;;5093411;28;20174;-71
2023/04/30 14:22:16;;;;;;;5.53;2.23;;;;;;;;;;5080926;28;20210;-71
2023/04/30 14:25:20;;;;;;;2.67;1.80;;;;;;;;;;5080724;28;20194;-70
2023/04/30 14:28:25;;;;;;;2.97;2.07;;;;;;;;;;5080867;28;20183;-71
2023/04/30 14:31:29;;;;;;;2.80;1.83;;;;;;;;;;5069598;28;20210;-71
2023/04/30 14:34:33;;;;;;;5.63;1.60;;;;;;;;;;5081000;28;20198;-71
2023/04/30 14:37:37;;;;;;;4.80;2.00;;;;;;;;;;5093128;28;20186;-70
2023/04/30 14:40:42;;;;;;;2.50;1.80;;;;;;;;;;5100302;28;20182;-70
2023/04/30 14:43:47;;;;;;;2.57;1.70;;;;;;;;;;5095370;28;20187;-71
2023/04/30 14:46:51;;;;;;;2.97;2.07;;;;;;;;;;5080608;28;20183;-70
2023/04/30 14:49:57;;;;;;;2.70;2.10;;;;;;;;;;5092917;28;20199;-70
2023/04/30 14:53:04;;;;;;;5.63;2.40;;;;;;;;;;5092758;28;20226;-70
2023/04/30 14:56:08;;;;;;;2.67;2.10;;;;;;;;;;5093518;28;20167;-70
2023/04/30 14:59:12;;;;;;;2.20;1.90;;;;;;;;;;5093258;28;20174;-71
2023/04/30 15:02:16;;;;;;;1.87;1.77;;;;;;;;;;5092566;28;20316;-70
2023/04/30 15:05:20;;;;;;;4.13;2.00;;;;;;;;;;5080287;28;20195;-70
2023/04/30 15:08:24;;;;;;;2.37;2.00;;;;;;;;;;5080590;28;20526;-70
2023/04/30 15:11:28;;;;;;;2.63;2.00;;;;;;;;;;5080749;28;20210;-70
2023/04/30 15:14:32;;;;;;;4.97;1.73;;;;;;;;;;5092987;28;20202;-70
2023/04/30 15:17:36;;;;;;;3.67;2.20;;;;;;;;;;5092869;28;20183;-70
2023/04/30 15:20:40;;;;;;;2.37;1.80;;;;;;;;;;5092913;28;20183;-70
2023/04/30 15:23:44;;;;;;;2.23;1.70;;;;;;;;;;5092925;28;20175;-70
2023/04/30 15:26:51;;;;;;;2.63;2.00;;;;;;;;;;5080632;28;20179;-70
2023/04/30 15:29:55;;;;;;;3.33;2.30;;;;;;;;;;5092552;28;20179;-70
2023/04/30 15:32:59;;;;;;;4.27;2.10;;;;;;;;;;5092475;28;20214;-70
2023/04/30 15:36:04;;;;;;;1.83;1.70;;;;;;;;;;5080408;28;20649;-71
2023/04/30 15:39:10;;;;;;;2.47;1.87;;;;;;;;;;5083013;28;20199;-70
2023/04/30 15:42:14;;;;;;;4.20;1.80;;;;;;;;;;5096479;28;20210;-71
2023/04/30 15:45:19;;;;;;;2.80;1.80;;;;;;;;;;5084161;28;20183;-70
2023/04/30 15:48:24;;;;;;;4.37;2.03;;;;;;;;;;5096476;28;20179;-71
2023/04/30 15:51:40;;;;;;;3.73;2.10;;;;;;;;;;5083720;28;20226;-70
2023/04/30 15:54:44;;;;;;;3.37;2.33;;;;;;;;;;5034450;28;20225;-74
2023/04/30 15:57:49;;;;;;;3.27;2.57;;;;;;;;;;5035305;28;20512;-73
2023/04/30 16:00:53;;;;;;;3.10;2.20;;;;;;;;;;5037997;28;20635;-74
2023/04/30 16:03:58;;;;;;;3.07;2.57;;;;;;;;;;5055532;28;20176;-74
2023/04/30 16:07:03;;;;;;;3.93;2.20;;;;;;;;;;5054932;28;20184;-73
2023/04/30 16:10:09;;;;;;;2.60;1.87;;;;;;;;;;5055453;28;20177;-74
2023/04/30 16:13:13;;;;;;;2.57;2.07;;;;;;;;;;5055786;28;20180;-73
2023/04/30 16:16:17;;;;;;;2.37;1.93;;;;;;;;;;5055369;28;20177;-73
2023/04/30 16:19:21;;;;;;;2.20;2.00;;;;;;;;;;5055568;28;20519;-73
2023/04/30 16:22:29;;;;;;;3.80;2.23;;;;;;;;;;5051554;28;20207;-74
2023/04/30 16:25:33;;;;;;;4.93;2.60;;;;;;;;;;5044701;28;20185;-74
2023/04/30 16:28:37;;;;;;;2.87;2.27;;;;;;;;;;5044291;28;20200;-73
2023/04/30 16:31:42;;;;;;;2.60;2.13;;;;;;;;;;5045043;28;20224;-74
2023/04/30 16:34:46;;;;;;;2.43;2.00;;;;;;;;;;5045480;28;20212;-74
2023/04/30 16:37:52;;;;;;;3.80;2.33;;;;;;;;;;5044065;28;20642;-74
2023/04/30 16:40:57;;;;;;;3.63;2.10;;;;;;;;;;5043746;28;20181;-74
2023/04/30 16:44:01;;;;;;;3.83;2.50;;;;;;;;;;5044956;28;20192;-74
2023/04/30 16:47:05;;;;;;;3.43;2.53;;;;;;;;;;5045004;28;20189;-74
2023/04/30 16:50:10;;;;;;;5.07;2.00;;;;;;;;;;5043684;28;20188;-74
2023/04/30 16:53:13;;;;;;;5.13;2.97;;;;;;;;;;5043784;28;20200;-74
2023/04/30 16:56:18;;;;;;;4.17;2.47;;;;;;;;;;5043687;28;20204;-75
2023/04/30 16:59:23;;;;;;;3.87;2.10;;;;;;;;;;5035207;28;20553;-75
2023/04/30 17:02:27;;;;;;;3.23;2.23;;;;;;;;;;5039171;28;20216;-74
2023/04/30 17:05:32;;;;;;;2.17;1.80;;;;;;;;;;5033861;28;20181;-74
2023/04/30 17:08:37;;;;;;;2.30;1.90;;;;;;;;;;5034171;28;20173;-74
2023/04/30 17:11:41;;;;;;;2.30;2.10;;;;;;;;;;5045209;28;20217;-74
2023/04/30 17:14:45;;;;;;;3.73;2.03;;;;;;;;;;5034680;28;20205;-74
2023/04/30 17:17:50;;;;;;;2.77;2.57;;;;;;;;;;5033635;28;20184;-74
2023/04/30 17:20:54;;;;;;;3.93;2.10;;;;;;;;;;5033394;28;20181;-75
2023/04/30 17:23:58;;;;;;;3.33;2.00;;;;;;;;;;5033071;28;20197;-74
2023/04/30 17:27:04;;;;;;;2.73;2.10;;;;;;;;;;5033911;28;20197;-74
2023/04/30 17:30:08;;;;;;;2.00;1.80;;;;;;;;;;5034202;28;20201;-74
2023/04/30 17:33:12;;;;;;;2.43;2.10;;;;;;;;;;5034446;28;20181;-74
2023/04/30 17:36:17;;;;;;;5.60;2.00;;;;;;;;;;5034029;28;20208;-74
2023/04/30 17:39:21;;;;;;;2.97;1.83;;;;;;;;;;5033754;28;20180;-74
2023/04/30 17:42:25;;;;;;;2.80;2.03;;;;;;;;;;5033780;28;20216;-74
2023/04/30 17:45:29;;;;;;;3.53;1.90;;;;;;;;;;5033886;28;20181;-74
2023/04/30 17:48:34;;;;;;;3.70;2.20;;;;;;;;;;5033109;28;20184;-74
2023/04/30 17:51:37;;;;;;;2.07;1.80;;;;;;;;;;5033480;28;20572;-74
2023/04/30 17:54:42;;;;;;;3.50;2.03;;;;;;;;;;5032754;28;20228;-74
2023/04/30 17:57:46;;;;;;;4.27;2.30;;;;;;;;;;5033791;28;20193;-74
2023/04/30 18:00:51;;;;;;;5.90;2.67;;;;;;;;;;5033476;28;20192;-74
2023/04/30 18:03:58;;;;;;;4.30;3.10;;;;;;;;;;5033667;28;20204;-74
2023/04/30 18:07:02;;;;;;;5.80;3.70;;;;;;;;;;5033612;28;20508;-74
2023/04/30 18:10:07;;;;;;;7.27;4.00;;;;;;;;;;5033539;28;20200;-73
2023/04/30 18:13:12;;;;;;;4.13;2.23;;;;;;;;;;5021369;28;20201;-74
2023/04/30 18:16:16;;;;;;;3.23;2.50;;;;;;;;;;5033088;28;20204;-74
2023/04/30 18:19:20;;;;;;;2.83;2.30;;;;;;;;;;5033701;28;20177;-74
2023/04/30 18:22:24;;;;;;;3.50;2.40;;;;;;;;;;5033265;28;20212;-74
2023/04/30 18:25:28;;;;;;;3.97;2.60;;;;;;;;;;5033244;28;20193;-74
2023/04/30 18:28:33;;;;;;;3.43;2.40;;;;;;;;;;5032797;28;20201;-73
2023/04/30 18:31:37;;;;;;;4.50;2.50;;;;;;;;;;5032117;28;20216;-77
2023/04/30 18:34:41;;;;;;;7.17;2.13;;;;;;;;;;5032828;28;20196;-74